createdAt,value
2017-02-23T00:00:17.180Z,1001.09
2017-02-23T00:01:26.902Z,1001.03
2017-02-23T00:02:36.256Z,1001.04
2017-02-23T00:03:45.179Z,1001.11
2017-02-23T00:04:54.208Z,1001.07
2017-02-23T00:06:04.786Z,1001.07
2017-02-23T00:07:13.707Z,1001.07
2017-02-23T00:08:23.039Z,1001.07
2017-02-23T00:09:32.773Z,1001.1
2017-02-23T00:10:42.647Z,1001.1
2017-02-23T00:11:51.578Z,1001.06
2017-02-23T00:13:00.928Z,1001.06
2017-02-23T00:14:10.262Z,1001.03
2017-02-23T00:15:19.586Z,1001.07
2017-02-23T00:16:29.011Z,1001.09
2017-02-23T00:17:38.347Z,1001.04
2017-02-23T00:18:48.106Z,1001.11
2017-02-23T00:19:57.843Z,1001.08
2017-02-23T00:21:07.201Z,1001.13
2017-02-23T00:22:17.506Z,1001.11
2017-02-23T00:23:27.246Z,1001.18
2017-02-23T00:24:36.564Z,1001.09
2017-02-23T00:25:45.899Z,1001.14
2017-02-23T00:26:54.818Z,1001.14
2017-02-23T00:28:04.543Z,1001.11
2017-02-23T00:29:13.466Z,1001.15
2017-02-23T00:30:22.796Z,1001.16
2017-02-23T00:31:32.140Z,1001.1
2017-02-23T00:32:41.473Z,1001.08
2017-02-23T00:33:51.099Z,1001.12
2017-02-23T00:35:00.442Z,1001.21
2017-02-23T00:36:10.567Z,1001.14
2017-02-23T00:37:20.306Z,1001.09
2017-02-23T00:38:29.640Z,1001.14
2017-02-23T00:39:38.561Z,1001.14
2017-02-23T00:40:48.285Z,1001.18
2017-02-23T00:41:57.598Z,1001.2
2017-02-23T00:43:07.330Z,1001.18
2017-02-23T00:44:17.071Z,1001.18
2017-02-23T00:45:26.516Z,1001.08
2017-02-23T00:46:35.837Z,1001.09
2017-02-23T00:47:45.569Z,1001.03
2017-02-23T00:48:54.912Z,1001.03
2017-02-23T00:50:04.658Z,1001.07
2017-02-23T00:51:13.996Z,1001.07
2017-02-23T00:52:23.324Z,1001.17
2017-02-23T00:53:33.527Z,1001.03
2017-02-23T00:54:42.846Z,1001.04
2017-02-23T00:55:52.160Z,1000.99
2017-02-23T00:57:02.048Z,1000.98
2017-02-23T00:58:11.369Z,1001.02
2017-02-23T00:59:20.696Z,1000.98
2017-02-23T01:00:30.019Z,1000.96
2017-02-23T01:01:39.756Z,1001
2017-02-23T01:02:48.977Z,1000.99
2017-02-23T01:03:59.120Z,1000.95
2017-02-23T01:05:08.454Z,1000.96
2017-02-23T01:06:17.386Z,1000.89
2017-02-23T01:07:26.722Z,1000.95
2017-02-23T01:08:37.401Z,1000.97
2017-02-23T01:09:46.742Z,1000.98
2017-02-23T01:10:55.668Z,1001.01
2017-02-23T01:12:04.593Z,1000.98
2017-02-23T01:13:13.507Z,1000.98
2017-02-23T01:14:23.798Z,1000.96
2017-02-23T01:15:33.131Z,1000.98
2017-02-23T01:16:42.048Z,1000.95
2017-02-23T01:17:51.381Z,1001.09
2017-02-23T01:19:00.706Z,1000.97
2017-02-23T01:20:09.783Z,1000.96
2017-02-23T01:21:19.122Z,1000.93
2017-02-23T01:22:28.441Z,1001.01
2017-02-23T01:23:37.375Z,1000.99
2017-02-23T01:24:47.520Z,1000.93
2017-02-23T01:25:56.905Z,1000.89
2017-02-23T01:27:07.043Z,1000.93
2017-02-23T01:28:17.608Z,1000.94
2017-02-23T01:29:26.535Z,1000.92
2017-02-23T01:30:36.286Z,1000.89
2017-02-23T01:31:45.204Z,1000.87
2017-02-23T01:32:54.942Z,1000.91
2017-02-23T01:34:04.267Z,1000.86
2017-02-23T01:35:13.583Z,1000.86
2017-02-23T01:36:23.315Z,1000.84
2017-02-23T01:37:32.382Z,1000.88
2017-02-23T01:38:42.550Z,1000.88
2017-02-23T01:39:52.296Z,1000.87
2017-02-23T01:41:01.629Z,1000.77
2017-02-23T01:42:10.546Z,1000.76
2017-02-23T01:43:20.419Z,1000.74
2017-02-23T01:44:30.163Z,1000.88
2017-02-23T01:45:40.296Z,1000.82
2017-02-23T01:46:50.092Z,1000.79
2017-02-23T01:47:59.419Z,1000.8
2017-02-23T01:49:09.156Z,1000.82
2017-02-23T01:50:18.485Z,1000.84
2017-02-23T01:51:27.394Z,1000.78
2017-02-23T01:52:36.715Z,1000.76
2017-02-23T01:53:45.644Z,1000.76
2017-02-23T01:54:54.635Z,1000.81
2017-02-23T01:56:03.544Z,1000.77
2017-02-23T01:57:13.694Z,1000.8
2017-02-23T01:58:23.008Z,1000.77
2017-02-23T01:59:32.327Z,1000.76
2017-02-23T02:00:41.795Z,1000.78
2017-02-23T02:01:50.702Z,1000.73
2017-02-23T02:02:59.637Z,1000.75
2017-02-23T02:04:09.374Z,1000.71
2017-02-23T02:05:18.692Z,1000.68
2017-02-23T02:06:28.716Z,1000.74
2017-02-23T02:07:38.064Z,1000.72
2017-02-23T02:08:48.246Z,1000.67
2017-02-23T02:09:57.979Z,1000.67
2017-02-23T02:11:07.312Z,1000.67
2017-02-23T02:12:16.374Z,1000.66
2017-02-23T02:13:26.103Z,1000.67
2017-02-23T02:14:35.431Z,1000.63
2017-02-23T02:15:44.347Z,1000.66
2017-02-23T02:16:53.672Z,1000.69
2017-02-23T02:18:03.556Z,1000.68
2017-02-23T02:19:12.885Z,1000.67
2017-02-23T02:20:22.207Z,1000.66
2017-02-23T02:21:31.951Z,1000.65
2017-02-23T02:22:41.694Z,1000.64
2017-02-23T02:23:50.609Z,1000.62
2017-02-23T02:24:59.528Z,1000.66
2017-02-23T02:26:08.848Z,1000.62
2017-02-23T02:27:18.611Z,1000.66
2017-02-23T02:28:28.751Z,1000.69
2017-02-23T02:29:38.777Z,1000.67
2017-02-23T02:30:48.524Z,1000.63
2017-02-23T02:31:58.269Z,1000.64
2017-02-23T02:33:08.401Z,1000.59
2017-02-23T02:34:18.134Z,1000.63
2017-02-23T02:35:27.118Z,1000.57
2017-02-23T02:36:36.026Z,1000.59
2017-02-23T02:37:44.962Z,1000.53
2017-02-23T02:38:54.710Z,1000.51
2017-02-23T02:40:04.023Z,1000.54
2017-02-23T02:41:13.510Z,1000.46
2017-02-23T02:42:23.241Z,1000.49
2017-02-23T02:43:32.563Z,1000.53
2017-02-23T02:44:41.918Z,1000.44
2017-02-23T02:45:51.247Z,1000.49
2017-02-23T02:47:00.873Z,1000.48
2017-02-23T02:48:10.622Z,1000.51
2017-02-23T02:49:19.960Z,1000.54
2017-02-23T02:50:29.708Z,1000.51
2017-02-23T02:51:39.035Z,1000.48
2017-02-23T02:52:49.246Z,1000.48
2017-02-23T02:53:58.567Z,1000.51
2017-02-23T02:55:07.898Z,1000.48
2017-02-23T02:56:17.227Z,1000.52
2017-02-23T02:57:26.545Z,1000.51
2017-02-23T02:58:36.225Z,1000.5
2017-02-23T02:59:46.376Z,1000.52
2017-02-23T03:00:56.111Z,1000.46
2017-02-23T03:02:06.670Z,1000.45
2017-02-23T03:03:16.008Z,1000.42
2017-02-23T03:04:25.742Z,1000.38
2017-02-23T03:05:35.090Z,1000.36
2017-02-23T03:06:44.426Z,1000.36
2017-02-23T03:07:53.339Z,1000.38
2017-02-23T03:09:03.488Z,1000.33
2017-02-23T03:10:13.321Z,1000.35
2017-02-23T03:11:23.054Z,1000.38
2017-02-23T03:12:33.231Z,1000.42
2017-02-23T03:13:42.561Z,1000.42
2017-02-23T03:14:51.898Z,1000.41
2017-02-23T03:16:01.288Z,1000.41
2017-02-23T03:17:10.627Z,1000.41
2017-02-23T03:18:19.949Z,1000.38
2017-02-23T03:19:30.515Z,1000.39
2017-02-23T03:20:39.439Z,1000.37
2017-02-23T03:21:49.243Z,1000.47
2017-02-23T03:22:58.192Z,1000.41
2017-02-23T03:24:07.945Z,1000.42
2017-02-23T03:25:17.691Z,1000.43
2017-02-23T03:26:27.827Z,1000.44
2017-02-23T03:27:37.212Z,1000.5
2017-02-23T03:28:46.553Z,1000.49
2017-02-23T03:29:56.278Z,1000.48
2017-02-23T03:31:06.017Z,1000.45
2017-02-23T03:32:14.969Z,1000.43
2017-02-23T03:33:25.200Z,1000.47
2017-02-23T03:34:34.119Z,1000.38
2017-02-23T03:35:43.451Z,1000.38
2017-02-23T03:36:52.787Z,1000.3
2017-02-23T03:38:03.368Z,1000.33
2017-02-23T03:39:12.703Z,1000.39
2017-02-23T03:40:22.053Z,1000.31
2017-02-23T03:41:32.191Z,1000.3
2017-02-23T03:42:41.111Z,1000.26
2017-02-23T03:43:50.019Z,1000.21
2017-02-23T03:44:59.902Z,1000.18
2017-02-23T03:46:09.635Z,1000.24
2017-02-23T03:47:19.371Z,1000.25
2017-02-23T03:48:29.111Z,1000.22
2017-02-23T03:49:38.443Z,1000.19
2017-02-23T03:50:47.980Z,1000.2
2017-02-23T03:51:57.725Z,1000.26
2017-02-23T03:53:07.894Z,1000.23
2017-02-23T03:54:17.214Z,1000.19
2017-02-23T03:55:26.140Z,1000.21
2017-02-23T03:56:35.563Z,1000.26
2017-02-23T03:57:45.700Z,1000.17
2017-02-23T03:58:55.017Z,1000.2
2017-02-23T04:00:04.341Z,1000.22
2017-02-23T04:01:14.476Z,1000.16
2017-02-23T04:02:24.258Z,1000.23
2017-02-23T04:03:33.986Z,1000.2
2017-02-23T04:04:44.123Z,1000.19
2017-02-23T04:05:53.045Z,1000.16
2017-02-23T04:07:02.786Z,1000.24
2017-02-23T04:08:12.680Z,1000.19
2017-02-23T04:09:22.423Z,1000.18
2017-02-23T04:10:32.556Z,1000.2
2017-02-23T04:11:42.290Z,1000.16
2017-02-23T04:12:51.613Z,1000.17
2017-02-23T04:14:01.085Z,1000.18
2017-02-23T04:15:10.426Z,1000.17
2017-02-23T04:16:20.161Z,1000.14
2017-02-23T04:17:29.894Z,1000.14
2017-02-23T04:18:39.626Z,1000.18
2017-02-23T04:19:49.666Z,1000.16
2017-02-23T04:20:58.578Z,1000.13
2017-02-23T04:22:07.909Z,1000.14
2017-02-23T04:23:17.638Z,1000.07
2017-02-23T04:24:26.558Z,1000.09
2017-02-23T04:25:36.005Z,1000.04
2017-02-23T04:26:45.358Z,1000.04
2017-02-23T04:27:55.083Z,1000.02
2017-02-23T04:29:04.817Z,1000.01
2017-02-23T04:30:13.733Z,1000
2017-02-23T04:31:23.150Z,999.96
2017-02-23T04:32:32.076Z,999.94
2017-02-23T04:33:41.423Z,999.97
2017-02-23T04:34:50.354Z,999.97
2017-02-23T04:35:59.690Z,999.92
2017-02-23T04:37:08.712Z,999.94
2017-02-23T04:38:18.854Z,999.9
2017-02-23T04:39:28.596Z,999.93
2017-02-23T04:40:38.736Z,999.92
2017-02-23T04:41:48.459Z,999.93
2017-02-23T04:42:58.340Z,999.92
2017-02-23T04:44:08.068Z,999.88
2017-02-23T04:45:17.800Z,999.91
2017-02-23T04:46:27.944Z,999.91
2017-02-23T04:47:37.260Z,999.91
2017-02-23T04:48:46.990Z,999.92
2017-02-23T04:49:56.719Z,999.93
2017-02-23T04:51:05.690Z,999.85
2017-02-23T04:52:15.019Z,999.85
2017-02-23T04:53:24.354Z,999.84
2017-02-23T04:54:34.185Z,999.8
2017-02-23T04:55:43.105Z,999.79
2017-02-23T04:56:52.442Z,999.8
2017-02-23T04:58:02.211Z,999.81
2017-02-23T04:59:11.966Z,999.77
2017-02-23T05:00:22.451Z,999.79
2017-02-23T05:01:31.794Z,999.74
2017-02-23T05:02:42.345Z,999.76
2017-02-23T05:03:51.666Z,999.7
2017-02-23T05:05:00.997Z,999.71
2017-02-23T05:06:11.550Z,999.65
2017-02-23T05:07:21.278Z,999.67
2017-02-23T05:08:30.596Z,999.65
2017-02-23T05:09:40.734Z,999.62
2017-02-23T05:10:50.054Z,999.62
2017-02-23T05:11:59.874Z,999.61
2017-02-23T05:13:08.787Z,999.57
2017-02-23T05:14:18.936Z,999.49
2017-02-23T05:15:28.673Z,999.5
2017-02-23T05:16:37.584Z,999.49
2017-02-23T05:17:47.083Z,999.49
2017-02-23T05:18:56.833Z,999.55
2017-02-23T05:20:06.164Z,999.47
2017-02-23T05:21:16.298Z,999.48
2017-02-23T05:22:26.431Z,999.41
2017-02-23T05:23:35.851Z,999.41
2017-02-23T05:24:45.585Z,999.43
2017-02-23T05:25:54.907Z,999.38
2017-02-23T05:27:04.639Z,999.38
2017-02-23T05:28:14.774Z,999.37
2017-02-23T05:29:24.239Z,999.31
2017-02-23T05:30:33.562Z,999.28
2017-02-23T05:31:42.883Z,999.24
2017-02-23T05:32:53.435Z,999.23
2017-02-23T05:34:02.754Z,999.25
2017-02-23T05:35:12.846Z,999.29
2017-02-23T05:36:22.602Z,999.31
2017-02-23T05:37:31.944Z,999.32
2017-02-23T05:38:41.262Z,999.29
2017-02-23T05:39:51.018Z,999.28
2017-02-23T05:41:01.637Z,999.34
2017-02-23T05:42:11.401Z,999.31
2017-02-23T05:43:20.730Z,999.27
2017-02-23T05:44:30.046Z,999.27
2017-02-23T05:45:39.376Z,999.26
2017-02-23T05:46:48.915Z,999.3
2017-02-23T05:47:58.662Z,999.28
2017-02-23T05:49:08.045Z,999.26
2017-02-23T05:50:17.373Z,999.26
2017-02-23T05:51:27.517Z,999.27
2017-02-23T05:52:37.204Z,999.31
2017-02-23T05:53:46.139Z,999.3
2017-02-23T05:54:55.062Z,999.27
2017-02-23T05:56:05.215Z,999.28
2017-02-23T05:57:14.944Z,999.33
2017-02-23T05:58:25.595Z,999.25
2017-02-23T05:59:35.331Z,999.27
2017-02-23T06:00:45.074Z,999.3
2017-02-23T06:01:54.010Z,999.21
2017-02-23T06:03:04.165Z,999.19
2017-02-23T06:04:14.913Z,999.18
2017-02-23T06:05:24.658Z,999.12
2017-02-23T06:06:33.994Z,999.11
2017-02-23T06:07:44.133Z,999.11
2017-02-23T06:08:53.877Z,999.03
2017-02-23T06:10:03.733Z,998.99
2017-02-23T06:11:13.486Z,998.98
2017-02-23T06:12:23.214Z,999
2017-02-23T06:13:32.160Z,998.96
2017-02-23T06:14:41.487Z,998.98
2017-02-23T06:15:50.865Z,998.99
2017-02-23T06:17:00.204Z,999.02
2017-02-23T06:18:09.548Z,998.95
2017-02-23T06:19:19.285Z,998.92
2017-02-23T06:20:28.611Z,998.96
2017-02-23T06:21:37.591Z,998.89
2017-02-23T06:22:47.730Z,998.93
2017-02-23T06:23:57.082Z,998.93
2017-02-23T06:25:07.635Z,998.91
2017-02-23T06:26:16.968Z,998.94
2017-02-23T06:27:27.346Z,998.93
2017-02-23T06:28:36.684Z,999
2017-02-23T06:29:46.422Z,998.99
2017-02-23T06:30:56.150Z,998.96
2017-02-23T06:32:05.493Z,998.99
2017-02-23T06:33:15.283Z,999.01
2017-02-23T06:34:25.422Z,999.03
2017-02-23T06:35:34.765Z,999
2017-02-23T06:36:44.110Z,999.04
2017-02-23T06:37:54.260Z,999.01
2017-02-23T06:39:03.645Z,999.05
2017-02-23T06:40:13.373Z,999.08
2017-02-23T06:41:22.693Z,999.03
2017-02-23T06:42:33.246Z,999.02
2017-02-23T06:43:43.394Z,999
2017-02-23T06:44:53.747Z,999.02
2017-02-23T06:46:02.659Z,999.08
2017-02-23T06:47:12.382Z,999.03
2017-02-23T06:48:21.695Z,999.06
2017-02-23T06:49:31.027Z,998.98
2017-02-23T06:50:41.167Z,998.95
2017-02-23T06:51:51.298Z,998.93
2017-02-23T06:53:00.626Z,998.93
2017-02-23T06:54:10.350Z,998.86
2017-02-23T06:55:19.687Z,998.89
2017-02-23T06:56:30.476Z,998.83
2017-02-23T06:57:39.800Z,998.88
2017-02-23T06:58:49.152Z,998.83
2017-02-23T06:59:58.885Z,998.8
2017-02-23T07:01:09.030Z,998.84
2017-02-23T07:02:18.984Z,998.79
2017-02-23T07:03:28.714Z,998.8
2017-02-23T07:04:38.079Z,998.77
2017-02-23T07:05:47.392Z,998.78
2017-02-23T07:06:56.314Z,998.77
2017-02-23T07:08:05.323Z,998.77
2017-02-23T07:09:14.681Z,998.75
2017-02-23T07:10:24.014Z,998.73
2017-02-23T07:11:33.366Z,998.68
2017-02-23T07:12:42.694Z,998.61
2017-02-23T07:13:52.257Z,998.65
2017-02-23T07:15:02.430Z,998.61
2017-02-23T07:16:11.757Z,998.62
2017-02-23T07:17:21.071Z,998.58
2017-02-23T07:18:30.388Z,998.54
2017-02-23T07:19:40.324Z,998.54
2017-02-23T07:20:50.874Z,998.56
2017-02-23T07:21:59.800Z,998.5
2017-02-23T07:23:09.525Z,998.49
2017-02-23T07:24:18.848Z,998.48
2017-02-23T07:25:28.325Z,998.42
2017-02-23T07:26:38.478Z,998.37
2017-02-23T07:27:48.223Z,998.4
2017-02-23T07:28:57.540Z,998.33
2017-02-23T07:30:06.454Z,998.34
2017-02-23T07:31:16.177Z,998.3
2017-02-23T07:32:25.902Z,998.18
2017-02-23T07:33:35.631Z,998.18
2017-02-23T07:34:45.358Z,998.13
2017-02-23T07:35:55.081Z,998.14
2017-02-23T07:37:04.592Z,998.1
2017-02-23T07:38:13.503Z,998.05
2017-02-23T07:39:23.246Z,998.02
2017-02-23T07:40:33.377Z,997.99
2017-02-23T07:41:42.697Z,997.98
2017-02-23T07:42:52.083Z,997.98
2017-02-23T07:44:01.807Z,997.92
2017-02-23T07:45:11.939Z,997.91
2017-02-23T07:46:21.666Z,997.86
2017-02-23T07:47:31.006Z,997.83
2017-02-23T07:48:41.186Z,997.83
2017-02-23T07:49:50.916Z,997.74
2017-02-23T07:51:01.047Z,997.67
2017-02-23T07:52:09.974Z,997.61
2017-02-23T07:53:19.307Z,997.59
2017-02-23T07:54:28.740Z,997.46
2017-02-23T07:55:38.093Z,997.42
2017-02-23T07:56:47.006Z,997.41
2017-02-23T07:57:56.341Z,997.33
2017-02-23T07:59:06.076Z,997.31
2017-02-23T08:00:15.493Z,997.28
2017-02-23T08:01:25.221Z,997.27
2017-02-23T08:02:34.576Z,997.28
2017-02-23T08:03:44.333Z,997.28
2017-02-23T08:04:54.085Z,997.21
2017-02-23T08:06:03.610Z,997.25
2017-02-23T08:07:12.533Z,997.2
2017-02-23T08:08:21.868Z,997.18
2017-02-23T08:09:31.216Z,997.14
2017-02-23T08:10:40.956Z,997.05
2017-02-23T08:11:50.905Z,997.03
2017-02-23T08:13:01.461Z,997.02
2017-02-23T08:14:10.798Z,996.98
2017-02-23T08:15:20.126Z,997.01
2017-02-23T08:16:29.442Z,996.95
2017-02-23T08:17:39.389Z,996.96
2017-02-23T08:18:48.339Z,996.99
2017-02-23T08:19:57.278Z,996.95
2017-02-23T08:21:06.614Z,996.91
2017-02-23T08:22:15.954Z,996.9
2017-02-23T08:23:25.691Z,996.86
2017-02-23T08:24:35.042Z,996.88
2017-02-23T08:25:45.176Z,996.87
2017-02-23T08:26:54.902Z,996.83
2017-02-23T08:28:05.049Z,996.73
2017-02-23T08:29:14.545Z,996.61
2017-02-23T08:30:24.728Z,996.66
2017-02-23T08:31:34.458Z,996.68
2017-02-23T08:32:43.802Z,996.6
2017-02-23T08:33:53.943Z,996.52
2017-02-23T08:35:02.928Z,996.49
2017-02-23T08:36:13.544Z,996.47
2017-02-23T08:37:22.498Z,996.52
2017-02-23T08:38:32.653Z,996.45
2017-02-23T08:39:41.982Z,996.43
2017-02-23T08:40:51.618Z,996.4
2017-02-23T08:42:00.957Z,996.36
2017-02-23T08:43:11.110Z,996.35
2017-02-23T08:44:20.459Z,996.4
2017-02-23T08:45:29.787Z,996.33
2017-02-23T08:46:38.935Z,996.3
2017-02-23T08:47:47.884Z,996.29
2017-02-23T08:48:58.029Z,996.21
2017-02-23T08:50:07.758Z,996.17
2017-02-23T08:51:17.082Z,996.15
2017-02-23T08:52:26.925Z,996.2
2017-02-23T08:53:37.069Z,996.04
2017-02-23T08:54:47.225Z,995.82
2017-02-23T08:55:57.370Z,995.78
2017-02-23T08:57:06.695Z,995.85
2017-02-23T08:58:15.765Z,995.96
2017-02-23T08:59:25.107Z,996.03
2017-02-23T09:00:34.845Z,996.01
2017-02-23T09:01:44.196Z,995.95
2017-02-23T09:02:53.922Z,995.91
2017-02-23T09:04:04.057Z,995.86
2017-02-23T09:05:13.811Z,995.86
2017-02-23T09:06:22.737Z,995.8
2017-02-23T09:07:32.068Z,995.72
2017-02-23T09:08:41.857Z,995.7
2017-02-23T09:09:53.010Z,995.59
2017-02-23T09:11:02.757Z,995.55
2017-02-23T09:12:12.072Z,995.46
2017-02-23T09:13:21.424Z,995.43
2017-02-23T09:14:31.145Z,995.4
2017-02-23T09:15:40.746Z,995.41
2017-02-23T09:16:50.080Z,995.32
2017-02-23T09:17:59.415Z,995.32
2017-02-23T09:19:08.747Z,995.34
2017-02-23T09:20:18.470Z,995.34
2017-02-23T09:21:28.657Z,995.3
2017-02-23T09:22:38.407Z,995.25
2017-02-23T09:23:48.549Z,995.15
2017-02-23T09:24:58.308Z,995.07
2017-02-23T09:26:08.030Z,995.12
2017-02-23T09:27:18.264Z,995.03
2017-02-23T09:28:27.996Z,995.06
2017-02-23T09:29:37.323Z,995
2017-02-23T09:30:47.065Z,995.04
2017-02-23T09:31:56.399Z,994.97
2017-02-23T09:33:06.413Z,994.9
2017-02-23T09:34:15.334Z,994.83
2017-02-23T09:35:25.063Z,994.77
2017-02-23T09:36:34.426Z,994.69
2017-02-23T09:37:43.755Z,994.76
2017-02-23T09:38:53.542Z,994.65
2017-02-23T09:40:02.456Z,994.66
2017-02-23T09:41:11.772Z,994.64
2017-02-23T09:42:21.906Z,994.56
2017-02-23T09:43:31.219Z,994.57
2017-02-23T09:44:41.536Z,994.59
2017-02-23T09:45:50.876Z,994.52
2017-02-23T09:47:00.217Z,994.67
2017-02-23T09:48:10.348Z,994.75
2017-02-23T09:49:20.512Z,994.66
2017-02-23T09:50:29.522Z,994.64
2017-02-23T09:51:39.663Z,994.55
2017-02-23T09:52:49.005Z,994.46
2017-02-23T09:53:57.930Z,994.37
2017-02-23T09:55:07.268Z,994.34
2017-02-23T09:56:18.075Z,994.21
2017-02-23T09:57:27.845Z,994.16
2017-02-23T09:58:37.980Z,994.14
2017-02-23T09:59:46.898Z,994.13
2017-02-23T10:00:57.051Z,994.14
2017-02-23T10:02:06.832Z,994.14
2017-02-23T10:03:15.777Z,994.08
2017-02-23T10:04:25.521Z,994.02
2017-02-23T10:05:34.431Z,994.02
2017-02-23T10:06:43.758Z,993.92
2017-02-23T10:07:53.479Z,993.88
2017-02-23T10:09:02.810Z,993.88
2017-02-23T10:10:12.543Z,993.84
2017-02-23T10:11:21.870Z,993.75
2017-02-23T10:12:31.187Z,993.75
2017-02-23T10:13:41.063Z,993.72
2017-02-23T10:14:50.843Z,993.72
2017-02-23T10:16:00.981Z,993.67
2017-02-23T10:17:10.741Z,993.65
2017-02-23T10:18:20.888Z,993.62
2017-02-23T10:19:31.486Z,993.57
2017-02-23T10:20:40.417Z,993.56
2017-02-23T10:21:50.567Z,993.55
2017-02-23T10:23:00.291Z,993.51
2017-02-23T10:24:10.478Z,993.51
2017-02-23T10:25:19.553Z,993.45
2017-02-23T10:26:28.892Z,993.43
2017-02-23T10:27:38.629Z,993.44
2017-02-23T10:28:47.947Z,993.31
2017-02-23T10:29:58.516Z,993.4
2017-02-23T10:31:07.506Z,993.28
2017-02-23T10:32:16.851Z,993.29
2017-02-23T10:33:26.199Z,993.28
2017-02-23T10:34:36.346Z,993.24
2017-02-23T10:35:46.083Z,993.2
2017-02-23T10:36:56.995Z,993.18
2017-02-23T10:38:06.329Z,993.11
2017-02-23T10:39:15.663Z,993.12
2017-02-23T10:40:25.009Z,993.13
2017-02-23T10:41:34.326Z,993.06
2017-02-23T10:42:44.722Z,993.02
2017-02-23T10:43:54.449Z,993.08
2017-02-23T10:45:05.010Z,992.99
2017-02-23T10:46:13.938Z,992.96
2017-02-23T10:47:24.069Z,992.95
2017-02-23T10:48:33.555Z,992.97
2017-02-23T10:49:42.888Z,992.94
2017-02-23T10:50:51.835Z,992.93
2017-02-23T10:52:01.569Z,992.84
2017-02-23T10:53:10.918Z,992.86
2017-02-23T10:54:19.895Z,992.84
2017-02-23T10:55:29.626Z,992.77
2017-02-23T10:56:39.370Z,992.78
2017-02-23T10:57:48.701Z,992.73
2017-02-23T10:58:58.041Z,992.71
2017-02-23T11:00:07.818Z,992.71
2017-02-23T11:01:17.538Z,992.6
2017-02-23T11:02:27.286Z,992.65
2017-02-23T11:03:36.238Z,992.6
2017-02-23T11:04:45.994Z,992.59
2017-02-23T11:05:55.785Z,992.57
2017-02-23T11:07:05.524Z,992.53
2017-02-23T11:08:14.848Z,992.49
2017-02-23T11:09:23.778Z,992.46
2017-02-23T11:10:33.556Z,992.47
2017-02-23T11:11:43.843Z,992.4
2017-02-23T11:12:53.997Z,992.43
2017-02-23T11:14:03.340Z,992.36
2017-02-23T11:15:13.485Z,992.35
2017-02-23T11:16:22.397Z,992.33
2017-02-23T11:17:32.186Z,992.23
2017-02-23T11:18:42.321Z,992.22
2017-02-23T11:19:52.862Z,992.14
2017-02-23T11:21:03.016Z,992.15
2017-02-23T11:22:12.348Z,992.11
2017-02-23T11:23:22.947Z,992.12
2017-02-23T11:24:32.717Z,992.02
2017-02-23T11:25:43.275Z,992.19
2017-02-23T11:26:52.617Z,992.02
2017-02-23T11:28:02.355Z,992.06
2017-02-23T11:29:12.094Z,992.02
2017-02-23T11:30:21.012Z,991.99
2017-02-23T11:31:30.336Z,992.09
2017-02-23T11:32:39.284Z,991.84
2017-02-23T11:33:48.620Z,991.9
2017-02-23T11:34:57.590Z,991.81
2017-02-23T11:36:07.341Z,991.97
2017-02-23T11:37:17.073Z,991.83
2017-02-23T11:38:26.429Z,991.8
2017-02-23T11:39:35.764Z,991.76
2017-02-23T11:40:45.707Z,991.63
2017-02-23T11:41:54.652Z,991.58
2017-02-23T11:43:03.974Z,991.57
2017-02-23T11:44:13.315Z,991.5
2017-02-23T11:45:22.643Z,991.48
2017-02-23T11:46:32.527Z,991.42
2017-02-23T11:47:41.470Z,991.27
2017-02-23T11:48:51.200Z,991.25
2017-02-23T11:50:01.353Z,991.21
2017-02-23T11:51:10.287Z,991.13
2017-02-23T11:52:19.871Z,991.11
2017-02-23T11:53:30.029Z,991.15
2017-02-23T11:54:39.781Z,991
2017-02-23T11:55:49.534Z,991.03
2017-02-23T11:56:58.482Z,990.92
2017-02-23T11:58:07.958Z,990.98
2017-02-23T11:59:17.289Z,991.09
2017-02-23T12:00:26.204Z,991.04
2017-02-23T12:01:35.581Z,991
2017-02-23T12:02:45.335Z,991
2017-02-23T12:03:55.322Z,990.86
2017-02-23T12:05:04.669Z,990.61
2017-02-23T12:06:14.417Z,990.74
2017-02-23T12:07:23.329Z,990.72
2017-02-23T12:08:33.063Z,990.62
2017-02-23T12:09:42.033Z,990.64
2017-02-23T12:10:52.208Z,990.67
2017-02-23T12:12:02.343Z,990.53
2017-02-23T12:13:11.663Z,990.49
2017-02-23T12:14:21.433Z,990.39
2017-02-23T12:15:30.510Z,990.46
2017-02-23T12:16:40.657Z,990.4
2017-02-23T12:17:49.567Z,990.44
2017-02-23T12:18:59.297Z,990.43
2017-02-23T12:20:08.251Z,990.25
2017-02-23T12:21:18.249Z,990.28
2017-02-23T12:22:27.610Z,990.16
2017-02-23T12:23:37.348Z,990.11
2017-02-23T12:24:47.485Z,990.05
2017-02-23T12:25:56.815Z,989.97
2017-02-23T12:27:05.879Z,989.88
2017-02-23T12:28:15.638Z,989.9
2017-02-23T12:29:24.992Z,989.8
2017-02-23T12:30:33.902Z,990.01
2017-02-23T12:31:44.469Z,989.74
2017-02-23T12:32:54.768Z,989.55
2017-02-23T12:34:04.086Z,989.68
2017-02-23T12:35:13.023Z,989.31
2017-02-23T12:36:22.347Z,989.43
2017-02-23T12:37:31.678Z,989.26
2017-02-23T12:38:41.105Z,989.43
2017-02-23T12:39:50.843Z,989.33
2017-02-23T12:41:00.572Z,989.18
2017-02-23T12:42:10.301Z,989.16
2017-02-23T12:43:19.233Z,989.03
2017-02-23T12:44:29.471Z,988.91
2017-02-23T12:45:39.232Z,988.78
2017-02-23T12:46:49.409Z,988.83
2017-02-23T12:47:59.142Z,988.71
2017-02-23T12:49:09.301Z,988.7
2017-02-23T12:50:18.721Z,988.59
2017-02-23T12:51:28.047Z,988.65
2017-02-23T12:52:36.972Z,988.66
2017-02-23T12:53:47.150Z,988.65
2017-02-23T12:54:56.471Z,988.59
2017-02-23T12:56:07.340Z,988.68
2017-02-23T12:57:16.265Z,988.72
2017-02-23T12:58:25.618Z,988.51
2017-02-23T12:59:34.528Z,988.59
2017-02-23T13:00:43.848Z,988.51
2017-02-23T13:01:54.254Z,988.42
2017-02-23T13:03:03.601Z,988.52
2017-02-23T13:04:13.336Z,988.23
2017-02-23T13:05:22.653Z,988.19
2017-02-23T13:06:31.617Z,988.29
2017-02-23T13:07:41.457Z,988.1
2017-02-23T13:08:51.209Z,988.04
2017-02-23T13:10:00.552Z,987.89
2017-02-23T13:11:10.284Z,987.87
2017-02-23T13:12:20.024Z,987.97
2017-02-23T13:13:30.161Z,987.96
2017-02-23T13:14:39.905Z,987.85
2017-02-23T13:15:49.633Z,987.83
2017-02-23T13:16:59.823Z,987.77
2017-02-23T13:18:09.975Z,987.73
2017-02-23T13:19:19.452Z,987.74
2017-02-23T13:20:29.185Z,987.46
2017-02-23T13:21:38.532Z,987.64
2017-02-23T13:22:48.281Z,987.57
2017-02-23T13:23:58.051Z,987.36
2017-02-23T13:25:07.588Z,987.3
2017-02-23T13:26:18.149Z,987.29
2017-02-23T13:27:27.062Z,987.16
2017-02-23T13:28:36.394Z,987.09
2017-02-23T13:29:46.135Z,987.14
2017-02-23T13:30:55.620Z,987.24
2017-02-23T13:32:04.977Z,987.16
2017-02-23T13:33:15.109Z,987.22
2017-02-23T13:34:24.026Z,987.12
2017-02-23T13:35:33.369Z,987.16
2017-02-23T13:36:42.854Z,986.91
2017-02-23T13:37:52.583Z,986.82
2017-02-23T13:39:03.129Z,986.68
2017-02-23T13:40:12.047Z,986.87
2017-02-23T13:41:21.004Z,986.83
2017-02-23T13:42:30.505Z,986.92
2017-02-23T13:43:39.832Z,986.7
2017-02-23T13:44:49.167Z,986.72
2017-02-23T13:45:58.515Z,986.62
2017-02-23T13:47:08.264Z,986.72
2017-02-23T13:48:17.642Z,986.51
2017-02-23T13:49:26.958Z,986.68
2017-02-23T13:50:37.101Z,986.67
2017-02-23T13:51:46.017Z,986.61
2017-02-23T13:52:55.368Z,986.51
2017-02-23T13:54:05.149Z,986.44
2017-02-23T13:55:14.079Z,986.54
2017-02-23T13:56:23.833Z,986.32
2017-02-23T13:57:33.156Z,986.4
2017-02-23T13:58:42.908Z,986.35
2017-02-23T13:59:53.508Z,986.19
2017-02-23T14:01:02.877Z,986.23
2017-02-23T14:02:13.016Z,986.2
2017-02-23T14:03:21.976Z,986.1
2017-02-23T14:04:31.315Z,986.34
2017-02-23T14:05:41.204Z,986.09
2017-02-23T14:06:50.156Z,986.21
2017-02-23T14:07:59.906Z,986.07
2017-02-23T14:09:10.043Z,986.05
2017-02-23T14:10:19.790Z,986.03
2017-02-23T14:11:29.211Z,985.95
2017-02-23T14:12:38.552Z,986.01
2017-02-23T14:13:48.295Z,985.94
2017-02-23T14:14:58.041Z,985.76
2017-02-23T14:16:07.799Z,985.8
2017-02-23T14:17:16.862Z,985.69
2017-02-23T14:18:27.014Z,985.68
2017-02-23T14:19:36.361Z,985.67
2017-02-23T14:20:45.691Z,985.62
2017-02-23T14:21:55.442Z,985.66